Time;durP1;ratioP1;P1;durP2;ratioP2;P2;SDS_P1;SDS_P2;PMS_P1;PMS_P2;Temp;Humidity;BMP_temperature;BMP_pressure;BME280_temperature;BME280_humidity;BME280_pressure;Samples;Min_cycle;Max_cycle;Signal;HPM_P1;HPM_P2
2023/08/03 00:00:20;;;;;;;17.92;14.73;;;;;;;21.85;100.00;98111.84;4996915;28;20038;-93
2023/08/03 00:02:46;;;;;;;18.55;13.43;;;;;;;21.86;100.00;98095.50;4997041;28;20046;-92
2023/08/03 00:05:17;;;;;;;15.93;13.65;;;;;;;22.04;99.46;98100.34;4996818;28;20081;-94
2023/08/03 00:07:43;;;;;;;16.17;14.45;;;;;;;22.14;98.08;98087.72;5010984;28;20065;-93
2023/08/03 00:10:09;;;;;;;19.20;15.15;;;;;;;22.20;97.22;98084.47;5016591;28;20056;-94
2023/08/03 00:12:35;;;;;;;16.73;15.00;;;;;;;22.38;94.63;98079.38;5016612;28;20140;-94
2023/08/03 00:15:01;;;;;;;16.92;15.35;;;;;;;22.48;93.59;98079.44;5016294;28;20240;-93
2023/08/03 00:17:27;;;;;;;17.40;15.52;;;;;;;22.62;92.83;98089.94;5016271;28;20091;-93
2023/08/03 00:19:52;;;;;;;19.20;17.63;;;;;;;22.67;92.23;98094.94;5006604;28;20045;-93
2023/08/03 00:22:20;;;;;;;18.38;16.48;;;;;;;22.57;93.79;98092.16;5016804;28;20041;-93
2023/08/03 00:24:45;;;;;;;21.65;17.17;;;;;;;22.41;94.57;98084.53;5016464;28;20034;-93
2023/08/03 00:27:11;;;;;;;19.45;17.45;;;;;;;22.35;94.63;98076.91;5016297;28;20219;-93
2023/08/03 00:29:37;;;;;;;21.20;15.30;;;;;;;21.95;98.00;98080.31;5018400;28;20041;-94
2023/08/03 00:32:05;;;;;;;15.57;14.18;;;;;;;22.00;98.89;98098.88;5020113;28;20048;-93
2023/08/03 00:34:31;;;;;;;16.33;14.53;;;;;;;21.92;98.88;98085.97;5020329;28;20525;-93
2023/08/03 00:36:57;;;;;;;16.80;14.70;;;;;;;21.93;100.00;98099.38;5020287;28;20041;-93
2023/08/03 00:39:25;;;;;;;23.70;14.65;;;;;;;21.72;100.00;98084.94;5020298;28;20088;-92
2023/08/03 00:41:51;;;;;;;15.05;13.23;;;;;;;21.65;100.00;98094.56;5019840;28;20141;-93
2023/08/03 00:44:17;;;;;;;20.58;12.50;;;;;;;21.47;100.00;98091.53;5020053;28;20156;-92
2023/08/03 00:46:43;;;;;;;16.80;13.70;;;;;;;21.30;100.00;98074.81;5019867;28;20609;-93
2023/08/03 00:49:09;;;;;;;16.52;12.00;;;;;;;21.38;100.00;98082.28;5019868;28;20061;-93
2023/08/03 00:51:35;;;;;;;17.15;12.77;;;;;;;21.44;100.00;98105.31;5019790;28;20541;-94
2023/08/03 00:54:06;;;;;;;19.00;13.07;;;;;;;21.24;100.00;98096.09;5019713;28;20041;-92
2023/08/03 00:56:34;;;;;;;16.45;12.43;;;;;;;21.19;100.00;98092.91;5019648;28;20079;-93
2023/08/03 00:59:00;;;;;;;15.82;13.10;;;;;;;21.05;100.00;98092.19;5019576;28;20064;-93
2023/08/03 01:01:26;;;;;;;14.90;13.32;;;;;;;21.18;100.00;98102.88;5019831;28;20144;-93
2023/08/03 01:03:54;;;;;;;18.63;11.98;;;;;;;21.19;100.00;98088.38;5019630;28;20068;-93
2023/08/03 01:06:20;;;;;;;18.50;12.13;;;;;;;21.13;100.00;98091.56;5019487;28;20197;-93
2023/08/03 01:08:46;;;;;;;20.90;12.48;;;;;;;21.13;100.00;98089.72;5019529;28;20136;-93
2023/08/03 01:11:12;;;;;;;19.70;13.88;;;;;;;21.01;100.00;98060.97;5019767;28;20065;-94
2023/08/03 01:13:39;;;;;;;14.27;12.60;;;;;;;21.08;100.00;98080.28;5019404;28;20491;-94
2023/08/03 01:16:06;;;;;;;15.05;12.32;;;;;;;21.08;100.00;98081.13;5019406;28;20084;-93
2023/08/03 01:18:32;;;;;;;18.02;13.93;;;;;;;20.76;100.00;98069.34;5019256;28;20042;-93
2023/08/03 01:20:59;;;;;;;21.40;17.08;;;;;;;20.59;100.00;98070.69;5019262;28;20556;-93
2023/08/03 01:23:26;;;;;;;16.38;14.18;;;;;;;20.63;100.00;98070.31;5019358;28;20494;-93
2023/08/03 01:25:52;;;;;;;20.08;16.17;;;;;;;20.65;100.00;98065.66;5019170;28;20038;-94
2023/08/03 01:28:18;;;;;;;18.05;14.73;;;;;;;20.65;100.00;98062.09;5019044;28;20603;-93
2023/08/03 01:30:44;;;;;;;21.45;16.77;;;;;;;20.82;100.00;98075.13;5019048;28;20041;-92
2023/08/03 01:33:09;;;;;;;18.00;14.05;;;;;;;20.80;100.00;98071.69;5019022;28;20053;-93
2023/08/03 01:35:35;;;;;;;24.52;14.80;;;;;;;20.77;100.00;98060.25;5018878;28;20447;-94
2023/08/03 01:38:01;;;;;;;17.95;16.05;;;;;;;20.74;100.00;98055.09;5018981;28;20498;-93
2023/08/03 01:40:28;;;;;;;18.33;15.35;;;;;;;20.65;100.00;98057.56;5018839;28;20049;-94
2023/08/03 01:42:54;;;;;;;19.90;15.52;;;;;;;20.69;100.00;98061.75;5018860;28;20063;-92
2023/08/03 01:45:20;;;;;;;24.67;16.25;;;;;;;20.67;100.00;98070.97;5018725;28;20144;-93
2023/08/03 01:47:46;;;;;;;19.23;16.67;;;;;;;20.69;100.00;98061.75;5018924;28;20510;-93
2023/08/03 01:50:12;;;;;;;19.35;16.52;;;;;;;20.72;100.00;98069.59;5018615;28;20132;-94
2023/08/03 01:52:37;;;;;;;18.23;16.45;;;;;;;20.63;100.00;98042.47;5018982;28;20089;-92
2023/08/03 01:55:04;;;;;;;20.00;16.75;;;;;;;20.78;100.00;98064.69;5018656;28;20072;-94
2023/08/03 01:57:31;;;;;;;19.02;16.15;;;;;;;20.68;100.00;98046.50;5018479;28;20069;-93
2023/08/03 01:59:57;;;;;;;18.80;16.83;;;;;;;20.79;100.00;98063.69;5018720;28;20038;-93
2023/08/03 02:02:23;;;;;;;18.83;16.83;;;;;;;20.89;100.00;98073.66;5018773;28;20128;-95
2023/08/03 02:04:49;;;;;;;21.17;16.67;;;;;;;20.84;100.00;98065.06;5018386;28;20037;-93
2023/08/03 02:07:16;;;;;;;18.40;16.55;;;;;;;20.88;100.00;98068.34;5018608;28;20613;-93
2023/08/03 02:09:42;;;;;;;26.33;16.65;;;;;;;20.88;100.00;98050.31;5018203;28;20045;-93
2023/08/03 02:12:08;;;;;;;18.52;16.38;;;;;;;20.96;100.00;98060.50;5018586;28;20045;-92
2023/08/03 02:14:35;;;;;;;19.58;16.65;;;;;;;20.83;100.00;98043.56;5018319;28;20053;-93
2023/08/03 02:17:01;;;;;;;18.77;16.95;;;;;;;20.89;100.00;98065.53;5018474;28;20411;-94
2023/08/03 02:19:27;;;;;;;18.10;16.40;;;;;;;20.87;100.00;98062.09;5018252;28;20048;-93
2023/08/03 02:21:53;;;;;;;17.85;15.95;;;;;;;20.90;100.00;98063.69;5018340;28;20402;-93
2023/08/03 02:24:19;;;;;;;19.10;16.88;;;;;;;20.84;100.00;98053.38;5018151;28;20037;-94
2023/08/03 02:26:45;;;;;;;22.00;17.90;;;;;;;20.76;100.00;98058.56;5018177;28;20132;-93
2023/08/03 02:29:11;;;;;;;24.05;18.42;;;;;;;20.91;100.00;98070.81;5018592;28;20132;-93
2023/08/03 02:31:38;;;;;;;19.65;17.67;;;;;;;20.85;100.00;98063.22;5018094;28;20048;-93
2023/08/03 02:34:04;;;;;;;26.52;17.80;;;;;;;20.74;100.00;98052.41;5018555;28;20109;-93
2023/08/03 02:36:30;;;;;;;19.98;17.98;;;;;;;20.76;100.00;98061.25;5018071;28;20076;-93
2023/08/03 02:38:56;;;;;;;21.20;18.92;;;;;;;20.83;100.00;98067.88;5017673;28;20091;-92
2023/08/03 02:41:21;;;;;;;23.38;19.42;;;;;;;20.59;100.00;98036.44;5004016;28;20080;-92
2023/08/03 02:43:47;;;;;;;21.58;19.33;;;;;;;20.65;100.00;98059.41;4998111;28;20104;-92
2023/08/03 02:46:13;;;;;;;22.70;20.05;;;;;;;20.57;100.00;98061.81;4998528;28;20050;-92
2023/08/03 02:48:40;;;;;;;26.30;20.35;;;;;;;20.46;100.00;98041.91;4998696;28;20060;-93
2023/08/03 02:51:06;;;;;;;22.27;20.08;;;;;;;20.53;100.00;98050.38;4997900;28;20140;-93
2023/08/03 02:53:32;;;;;;;20.85;16.13;;;;;;;20.39;100.00;98056.03;4997970;28;20096;-94
2023/08/03 02:55:58;;;;;;;21.65;19.58;;;;;;;20.34;100.00;98056.38;4997939;28;20157;-92
2023/08/03 02:58:24;;;;;;;26.10;23.65;;;;;;;20.30;100.00;98044.13;4998080;28;20136;-94
2023/08/03 03:00:49;;;;;;;36.67;33.75;;;;;;;20.28;100.00;98046.94;4998046;28;20068;-92
2023/08/03 03:03:15;;;;;;;32.83;30.23;;;;;;;20.41;100.00;98063.03;4998350;28;20455;-93
2023/08/03 03:05:42;;;;;;;1999.90;999.90;;;;;;;20.29;100.00;98043.25;4997756;28;20514;-93
2023/08/03 03:08:08;;;;;;;1999.90;999.90;;;;;;;20.23;100.00;98068.03;4997851;28;20046;-93
2023/08/03 03:10:34;;;;;;;1999.90;999.90;;;;;;;20.18;100.00;98064.81;4998103;28;20153;-92
2023/08/03 03:13:00;;;;;;;1999.90;999.90;;;;;;;20.19;100.00;98066.56;4997630;28;20104;-94
2023/08/03 03:15:26;;;;;;;1999.90;999.90;;;;;;;20.15;100.00;98064.22;4997702;28;20052;-92
2023/08/03 03:17:52;;;;;;;1999.90;999.90;;;;;;;20.13;100.00;98050.84;4997706;28;20069;-94
2023/08/03 03:20:18;;;;;;;1999.90;999.90;;;;;;;20.15;100.00;98050.72;4997811;28;20529;-95
2023/08/03 03:22:45;;;;;;;1999.90;999.90;;;;;;;20.27;100.00;98069.50;4997606;28;20113;-93
2023/08/03 03:25:11;;;;;;;1999.90;999.90;;;;;;;20.20;100.00;98062.00;4997612;28;20046;-93
2023/08/03 03:27:36;;;;;;;1999.90;999.90;;;;;;;20.22;100.00;98087.06;4998133;28;20080;-93
2023/08/03 03:30:03;;;;;;;1999.90;999.90;;;;;;;20.21;100.00;98080.78;4997410;28;20049;-93
2023/08/03 03:32:29;;;;;;;1999.90;999.90;;;;;;;20.23;100.00;98086.06;4997896;28;20081;-93
2023/08/03 03:34:55;;;;;;;1999.90;999.90;;;;;;;20.19;100.00;98088.16;4997806;28;20065;-93
2023/08/03 03:37:20;;;;;;;1999.90;999.90;;;;;;;20.19;100.00;98088.16;4998062;28;20068;-94
2023/08/03 03:39:48;;;;;;;1999.90;999.90;;;;;;;20.10;100.00;98078.03;4998217;28;20041;-94
2023/08/03 03:42:13;;;;;;;1999.90;999.90;;;;;;;20.07;100.00;98078.28;5016981;28;20048;-96
2023/08/03 03:44:39;;;;;;;1999.90;999.90;;;;;;;20.18;100.00;98094.50;5017504;28;20049;-93
2023/08/03 03:47:05;;;;;;;1999.90;999.90;;;;;;;20.06;100.00;98081.94;5016726;28;20568;-94
2023/08/03 03:49:31;;;;;;;1999.90;999.90;;;;;;;20.14;100.00;98101.13;5016790;28;20033;-94
2023/08/03 03:51:57;;;;;;;1999.90;999.90;;;;;;;19.98;100.00;98069.06;5016981;28;20053;-93
2023/08/03 03:54:23;;;;;;;1999.90;999.90;;;;;;;20.16;100.00;98098.31;5017046;28;20045;-96
2023/08/03 03:56:50;;;;;;;1999.90;999.90;;;;;;;20.07;100.00;98076.44;5033158;28;20072;-94
2023/08/03 03:59:16;;;;;;;1999.90;999.90;;;;;;;20.13;100.00;98090.47;5016687;28;20041;-94
2023/08/03 04:01:42;;;;;;;1999.90;999.90;;;;;;;19.99;100.00;98075.31;5016727;28;20050;-94
2023/08/03 04:04:08;;;;;;;1999.90;999.90;;;;;;;20.00;100.00;98094.09;5018009;28;20053;-94
2023/08/03 04:06:33;;;;;;;1999.90;999.90;;;;;;;20.09;100.00;98104.19;5021100;28;20051;-94
2023/08/03 04:08:59;;;;;;;1999.90;999.90;;;;;;;20.05;100.00;98101.84;5020418;28;20042;-93
2023/08/03 04:11:25;;;;;;;1999.90;999.90;;;;;;;19.96;100.00;98091.75;5020921;28;20375;-95
2023/08/03 04:13:52;;;;;;;1999.90;999.90;;;;;;;20.11;100.00;98112.16;5020286;28;20045;-94
2023/08/03 04:16:18;;;;;;;1999.90;999.90;;;;;;;20.12;100.00;98119.28;5020120;28;20225;-95
2023/08/03 04:18:44;;;;;;;1999.90;999.90;;;;;;;20.05;100.00;98096.44;5020160;28;20105;-95
2023/08/03 04:21:10;;;;;;;1999.90;999.90;;;;;;;20.14;100.00;98111.06;5020200;28;20141;-95
2023/08/03 04:23:35;;;;;;;1999.90;999.90;;;;;;;20.11;100.00;98101.38;5021185;28;20041;-95
2023/08/03 04:26:01;;;;;;;1999.90;999.90;;;;;;;20.22;100.00;98117.59;5020459;28;20041;-95
2023/08/03 04:28:27;;;;;;;1999.90;999.90;;;;;;;20.13;100.00;98104.81;5020222;28;20076;-94
2023/08/03 04:30:54;;;;;;;1999.90;999.90;;;;;;;20.27;100.00;98123.50;5020132;28;20148;-95
2023/08/03 04:33:20;;;;;;;1999.90;999.90;;;;;;;20.29;100.00;98126.09;5020640;28;20042;-95
2023/08/03 04:35:46;;;;;;;1999.90;999.90;;;;;;;20.17;100.00;98106.31;5019904;28;20049;-94
2023/08/03 04:38:12;;;;;;;1999.90;999.90;;;;;;;20.29;100.00;98126.09;5019938;28;20108;-94
2023/08/03 04:40:38;;;;;;;1999.90;999.90;;;;;;;20.36;100.00;98129.16;5019878;28;20077;-95
2023/08/03 04:43:04;;;;;;;1999.90;999.90;;;;;;;20.35;100.00;98122.06;5020061;28;20041;-94
2023/08/03 04:45:30;;;;;;;1999.90;999.90;;;;;;;20.46;100.00;98130.19;5019873;28;20157;-94
2023/08/03 04:47:57;;;;;;;1999.90;999.90;;;;;;;20.53;100.00;98134.13;5019766;28;20041;-94
2023/08/03 04:50:23;;;;;;;1999.90;999.90;;;;;;;20.58;100.00;98129.28;5019917;28;20041;-96
2023/08/03 04:52:49;;;;;;;1999.90;999.90;;;;;;;20.74;100.00;98138.88;5020597;28;20436;-93
2023/08/03 04:55:15;;;;;;;1999.90;999.90;;;;;;;20.94;100.00;98143.53;5019820;28;20041;-95
2023/08/03 04:57:41;;;;;;;1999.90;999.90;;;;;;;20.98;100.00;98128.81;5020231;28;20045;-94
2023/08/03 05:00:08;;;;;;;1999.90;999.90;;;;;;;21.08;100.00;98123.53;5019902;28;20044;-95
2023/08/03 05:02:34;;;;;;;1999.90;999.90;;;;;;;21.26;100.00;98137.41;5019467;28;20080;-94
2023/08/03 05:05:01;;;;;;;1999.90;999.90;;;;;;;21.31;100.00;98138.72;5019546;28;20073;-94
2023/08/03 05:07:27;;;;;;;1999.90;999.90;;;;;;;21.40;100.00;98137.13;5019548;28;20048;-96
2023/08/03 05:09:53;;;;;;;1999.90;999.90;;;;;;;21.50;100.00;98138.13;5019827;28;20046;-95
2023/08/03 05:12:19;;;;;;;1999.90;999.90;;;;;;;21.71;100.00;98129.25;5019404;28;20041;-95
2023/08/03 05:14:45;;;;;;;1999.90;999.90;;;;;;;22.08;100.00;98131.56;5018965;28;20052;-95
2023/08/03 05:17:11;;;;;;;1999.90;999.90;;;;;;;22.57;100.00;98140.94;5019585;28;20406;-94
2023/08/03 05:19:37;;;;;;;1999.90;999.90;;;;;;;22.73;100.00;98122.38;5019453;28;20057;-95
2023/08/03 05:22:05;;;;;;;1999.90;999.90;;;;;;;23.12;100.00;98136.16;5019962;28;20068;-96
2023/08/03 05:24:31;;;;;;;1999.90;999.90;;;;;;;23.18;100.00;98129.31;5019273;28;20056;-94
2023/08/03 05:26:57;;;;;;;1999.90;999.90;;;;;;;23.41;100.00;98126.41;5021928;28;20072;-96
2023/08/03 05:29:23;;;;;;;1999.90;999.90;;;;;;;23.44;100.00;98112.53;5021170;28;20042;-96
2023/08/03 05:31:49;;;;;;;1999.90;999.90;;;;;;;23.60;100.00;98117.47;5027040;28;20075;-95
2023/08/03 05:34:16;;;;;;;1999.90;999.90;;;;;;;23.88;100.00;98143.81;5028075;28;20113;-96
2023/08/03 05:36:42;;;;;;;1999.90;999.90;;;;;;;23.96;100.00;98124.09;5027061;28;20076;-95
2023/08/03 05:39:10;;;;;;;1999.90;999.90;;;;;;;24.07;100.00;98120.38;5028865;28;20041;-96
2023/08/03 05:41:36;;;;;;;1999.90;999.90;;;;;;;24.27;100.00;98118.53;5024839;28;20058;-95
2023/08/03 05:44:03;;;;;;;1999.90;999.90;;;;;;;24.35;100.00;98114.09;5026158;28;20041;-96
2023/08/03 05:46:33;;;;;;;1999.90;999.90;;;;;;;24.35;100.00;98130.41;5032483;28;20046;-96
2023/08/03 05:48:59;;;;;;;1999.90;999.90;;;;;;;24.39;100.00;98110.06;5031345;28;20045;-95
2023/08/03 05:51:27;;;;;;;1999.90;999.90;;;;;;;24.53;100.00;98121.53;5025467;28;20383;-96
2023/08/03 05:53:55;;;;;;;1999.90;999.90;;;;;;;24.50;100.00;98132.69;5023324;28;20045;-95
2023/08/03 05:56:24;;;;;;;1999.90;999.90;;;;;;;24.35;100.00;98116.81;5024310;28;20053;-96
2023/08/03 05:58:50;;;;;;;1999.90;999.90;;;;;;;24.45;100.00;98121.38;5024329;28;20132;-96
2023/08/03 06:01:19;;;;;;;1999.90;999.90;;;;;;;24.14;100.00;98124.25;5025934;28;20041;-96
2023/08/03 06:03:46;;;;;;;1999.90;999.90;;;;;;;24.23;100.00;98120.69;5022363;28;20064;-95
2023/08/03 06:06:15;;;;;;;1999.90;999.90;;;;;;;24.16;100.00;98119.53;5023140;28;20045;-96
2023/08/03 06:08:46;;;;;;;1999.90;999.90;;;;;;;24.31;100.00;98109.97;5023608;28;20112;-96
2023/08/03 06:11:12;;;;;;;1999.90;999.90;;;;;;;24.58;100.00;98124.69;5020283;28;20041;-96
2023/08/03 06:13:40;;;;;;;1999.90;999.90;;;;;;;24.69;100.00;98110.06;5023324;28;20053;-96
2023/08/03 06:16:09;;;;;;;1999.90;999.90;;;;;;;24.89;100.00;98119.88;5021347;28;20049;-96
2023/08/03 06:18:45;;;;;;;1999.90;999.90;;;;;;;24.79;100.00;98154.41;5018801;28;20053;-95
2023/08/03 06:21:13;;;;;;;1999.90;999.90;;;;;;;24.72;100.00;98143.25;5018251;28;20046;-94
2023/08/03 06:23:40;;;;;;;1999.90;999.90;;;;;;;24.64;100.00;98140.41;5018224;28;20049;-95
2023/08/03 06:26:11;;;;;;;1999.90;999.90;;;;;;;24.21;100.00;98152.56;5017309;28;20037;-94
2023/08/03 06:28:39;;;;;;;1999.90;999.90;;;;;;;24.44;100.00;98153.13;5017963;28;20520;-94
2023/08/03 06:31:12;;;;;;;1999.90;999.90;;;;;;;24.38;100.00;98154.56;5018085;28;20045;-94
2023/08/03 06:33:38;;;;;;;1999.90;999.90;;;;;;;24.52;100.00;98152.44;5003036;28;20045;-96
2023/08/03 06:36:05;;;;;;;1999.90;999.90;;;;;;;24.30;100.00;98140.84;5018239;28;20071;-94
2023/08/03 06:38:32;;;;;;;1999.90;999.90;;;;;;;24.57;100.00;98134.69;5018693;28;20042;-96
2023/08/03 06:40:58;;;;;;;1999.90;999.90;;;;;;;24.82;100.00;98153.25;5019991;28;20053;-96
2023/08/03 06:43:24;;;;;;;1999.90;999.90;;;;;;;24.63;100.00;98144.13;5020225;28;20061;-93
2023/08/03 06:45:51;;;;;;;1999.90;999.90;;;;;;;24.66;100.00;98138.41;5018353;28;20045;-93
2023/08/03 06:48:18;;;;;;;1999.90;999.90;;;;;;;24.67;100.00;98159.13;5017798;28;20037;-95
2023/08/03 06:50:44;;;;;;;1999.90;999.90;;;;;;;24.68;100.00;98136.41;5018409;28;20564;-93
2023/08/03 06:53:11;;;;;;;1999.90;999.90;;;;;;;25.01;100.00;98131.44;5017670;28;20041;-92
2023/08/03 06:55:37;;;;;;;1999.90;999.90;;;;;;;25.04;100.00;98128.41;5017016;28;20085;-92
2023/08/03 06:58:03;;;;;;;1999.90;999.90;;;;;;;25.18;100.00;98146.97;5012460;28;20045;-92
2023/08/03 07:00:29;;;;;;;1999.90;999.90;;;;;;;24.97;100.00;98130.00;5014474;28;20041;-93
2023/08/03 07:02:57;;;;;;;1999.90;999.90;;;;;;;25.30;100.00;98144.94;5015441;28;20064;-90
2023/08/03 07:05:23;;;;;;;1999.90;999.90;;;;;;;25.01;100.00;98142.31;5033613;28;20037;-92
2023/08/03 07:07:49;;;;;;;1999.90;999.90;;;;;;;25.12;100.00;98136.69;5019096;28;20045;-93
2023/08/03 07:10:15;;;;;;;1999.90;999.90;;;;;;;25.13;100.00;98126.66;5015316;28;20467;-93
2023/08/03 07:12:42;;;;;;;1999.90;999.90;;;;;;;25.50;100.00;98142.13;5033588;28;20068;-92
2023/08/03 07:15:09;;;;;;;1999.90;999.90;;;;;;;25.79;100.00;98142.81;5005764;28;20430;-93
2023/08/03 07:17:34;;;;;;;1999.90;999.90;;;;;;;26.00;100.00;98138.97;5017296;28;20148;-94
2023/08/03 07:20:02;;;;;;;1999.90;999.90;;;;;;;26.21;100.00;98133.22;5016945;28;20033;-94
2023/08/03 07:22:29;;;;;;;1999.90;999.90;;;;;;;25.98;100.00;98147.31;5013720;28;20533;-92
2023/08/03 07:24:55;;;;;;;1999.90;999.90;;;;;;;26.12;100.00;98139.63;5017223;28;20038;-92
2023/08/03 07:27:21;;;;;;;1999.90;999.90;;;;;;;26.48;100.00;98137.75;5014273;28;20042;-93
2023/08/03 07:29:47;;;;;;;1999.90;999.90;;;;;;;26.68;100.00;98129.41;5014044;28;20030;-93
2023/08/03 07:32:13;;;;;;;1999.90;999.90;;;;;;;26.70;100.00;98124.66;5015936;28;20037;-93
2023/08/03 07:34:39;;;;;;;1999.90;999.90;;;;;;;26.97;100.00;98139.97;5014612;28;20037;-93
2023/08/03 07:37:07;;;;;;;1999.90;999.90;;;;;;;26.68;100.00;98137.59;5016732;28;20044;-93
2023/08/03 07:39:33;;;;;;;1999.90;999.90;;;;;;;26.78;100.00;98117.38;5015287;28;20040;-93
2023/08/03 07:41:59;;;;;;;43.08;38.70;;;;;;;27.08;100.00;98133.41;5014440;28;20511;-93
2023/08/03 07:44:24;;;;;;;41.60;36.97;;;;;;;26.91;100.00;98124.25;5011100;28;20038;-93
2023/08/03 07:46:50;;;;;;;42.80;38.47;;;;;;;27.19;100.00;98125.78;5014202;28;20037;-96
2023/08/03 07:49:16;;;;;;;41.88;35.10;;;;;;;27.39;100.00;98126.44;5016773;28;20057;-94
2023/08/03 07:51:43;;;;;;;44.42;38.95;;;;;;;26.99;100.00;98116.13;5019800;28;20037;-94
2023/08/03 07:54:11;;;;;;;39.53;35.63;;;;;;;26.66;100.00;98126.81;5017711;28;20042;-93
2023/08/03 07:56:36;;;;;;;40.05;36.13;;;;;;;26.96;100.00;98119.19;5018706;28;20042;-93
2023/08/03 07:59:04;;;;;;;44.88;36.45;;;;;;;27.34;100.00;98119.75;5017460;28;20068;-96
2023/08/03 08:01:31;;;;;;;41.60;38.30;;;;;;;27.74;99.42;98127.25;5010479;28;20042;-92
2023/08/03 08:03:57;;;;;;;41.78;35.55;;;;;;;27.92;97.39;98108.00;5007468;28;20041;-95
2023/08/03 08:06:23;;;;;;;36.38;29.17;;;;;;;27.79;96.20;98124.84;5016561;28;20041;-94
2023/08/03 08:08:50;;;;;;;40.30;35.92;;;;;;;27.70;97.91;98114.94;5016732;28;20037;-94
2023/08/03 08:11:18;;;;;;;39.67;32.33;;;;;;;27.98;97.84;98121.00;5011983;28;20041;-95
2023/08/03 08:13:44;;;;;;;34.88;27.75;;;;;;;28.09;97.51;98124.44;5009408;28;20037;-93
2023/08/03 08:16:12;;;;;;;31.42;26.70;;;;;;;28.44;93.67;98134.22;5006638;28;20068;-92
2023/08/03 08:18:38;;;;;;;35.73;23.77;;;;;;;28.36;94.39;98124.09;5016025;28;20050;-94
2023/08/03 08:21:07;;;;;;;30.75;24.58;;;;;;;28.36;94.38;98104.13;5005756;28;20038;-96
2023/08/03 08:23:33;;;;;;;31.10;23.60;;;;;;;28.27;93.66;98128.72;5013470;28;20049;-95
2023/08/03 08:25:59;;;;;;;31.85;26.20;;;;;;;28.20;92.56;98102.25;5016239;28;20525;-94
2023/08/03 08:28:29;;;;;;;34.15;25.60;;;;;;;28.70;91.85;98125.84;5018633;28;20042;-93
2023/08/03 08:30:55;;;;;;;53.85;29.60;;;;;;;28.72;89.97;98128.41;5012719;28;20053;-95
2023/08/03 08:33:21;;;;;;;29.45;25.38;;;;;;;28.96;88.03;98130.25;5017521;28;20068;-92
2023/08/03 08:35:49;;;;;;;33.03;25.75;;;;;;;28.56;89.84;98130.16;5015510;28;20581;-94
2023/08/03 08:38:16;;;;;;;32.87;23.17;;;;;;;28.92;90.35;98129.75;5015202;28;20041;-93
2023/08/03 08:40:44;;;;;;;28.33;21.40;;;;;;;29.13;88.00;98136.59;5017670;28;20411;-94
2023/08/03 08:43:10;;;;;;;25.63;20.15;;;;;;;29.31;85.71;98134.47;5016992;28;20080;-94
2023/08/03 08:45:38;;;;;;;27.90;20.25;;;;;;;29.27;85.35;98112.06;5015252;28;20099;-94
2023/08/03 08:48:04;;;;;;;;;;;;;;;29.44;87.47;98133.91;4997972;28;20045;-94
2023/08/03 08:50:31;;;;;;;27.17;24.27;;;;;;;29.54;83.94;98104.44;5016334;28;19925;-93
2023/08/03 08:52:57;;;;;;;33.92;22.27;;;;;;;28.92;85.45;98131.63;5018963;28;20046;-93
2023/08/03 08:55:25;;;;;;;28.95;21.08;;;;;;;29.22;84.85;98130.06;5007697;28;20050;-93
2023/08/03 08:57:51;;;;;;;27.98;18.45;;;;;;;29.23;84.95;98112.59;5009119;28;20041;-93
2023/08/03 09:00:19;;;;;;;27.27;21.27;;;;;;;29.25;84.32;98114.09;5019831;28;20075;-93
2023/08/03 09:02:47;;;;;;;27.90;20.60;;;;;;;29.57;83.29;98117.75;5010987;28;20041;-95
2023/08/03 09:05:14;;;;;;;37.10;21.23;;;;;;;29.37;83.52;98124.72;5021086;28;20079;-95
2023/08/03 09:07:40;;;;;;;21.70;18.40;;;;;;;29.45;81.64;98098.13;5022202;28;20069;-96
2023/08/03 09:10:07;;;;;;;25.55;20.63;;;;;;;29.69;81.84;98088.13;5018377;28;20037;-93
2023/08/03 09:12:33;;;;;;;31.75;20.50;;;;;;;29.84;82.87;98090.91;5019206;28;20049;-94
2023/08/03 09:14:59;;;;;;;23.73;19.38;;;;;;;29.90;79.47;98112.13;5023943;28;20119;-94
2023/08/03 09:17:26;;;;;;;23.40;19.58;;;;;;;29.33;80.61;98088.59;5021848;28;20041;-96
2023/08/03 09:19:54;;;;;;;28.13;18.98;;;;;;;29.73;79.63;98100.41;5020790;28;20188;-95
2023/08/03 09:22:22;;;;;;;25.48;19.17;;;;;;;29.97;79.48;98090.31;5019970;28;20414;-94
2023/08/03 09:24:59;;;;;;;22.92;16.38;;;;;;;29.86;78.08;98102.56;5016765;28;20049;-95
2023/08/03 09:27:26;;;;;;;22.87;16.83;;;;;;;30.04;78.71;98086.69;5001933;28;20134;-96
2023/08/03 09:29:58;;;;;;;22.05;13.60;;;;;;;30.00;77.16;98100.94;5009557;28;20042;-95
2023/08/03 09:32:30;;;;;;;22.65;13.00;;;;;;;30.06;77.61;98095.59;5019782;28;20037;-94
2023/08/03 09:34:58;;;;;;;20.60;13.30;;;;;;;30.01;77.85;98098.00;5019511;28;20418;-94
2023/08/03 09:37:32;;;;;;;;;;;;;;;30.16;77.62;98111.78;5021086;28;20038;-95
2023/08/03 09:39:58;;;;;;;22.25;13.70;;;;;;;30.36;76.60;98086.63;5020562;28;20294;-94
2023/08/03 09:42:27;;;;;;;23.48;13.18;;;;;;;30.34;75.31;98067.63;5020923;28;20045;-96
2023/08/03 09:44:55;;;;;;;22.20;12.77;;;;;;;30.20;74.66;98090.34;5002510;28;20080;-93
2023/08/03 09:47:21;;;;;;;23.40;12.50;;;;;;;30.10;75.21;98085.09;5029853;28;20050;-94
2023/08/03 09:49:46;;;;;;;19.98;11.82;;;;;;;30.45;74.74;98067.19;5019940;28;20032;-95
2023/08/03 09:52:20;;;;;;;23.00;11.65;;;;;;;30.64;73.87;98067.69;5018804;28;20049;-93
2023/08/03 09:54:55;;;;;;;17.83;10.75;;;;;;;30.98;70.24;98078.16;5011808;28;20045;-94
2023/08/03 09:57:23;;;;;;;24.77;11.30;;;;;;;31.16;69.77;98076.94;5012893;28;20042;-93
2023/08/03 09:59:54;;;;;;;22.80;11.13;;;;;;;31.10;70.17;98067.59;5018119;28;20047;-94
2023/08/03 10:02:23;;;;;;;19.20;11.13;;;;;;;31.31;69.46;98075.03;5015518;28;20458;-95
2023/08/03 10:04:55;;;;;;;19.20;10.30;;;;;;;31.35;68.55;98067.28;5010668;28;20491;-95
2023/08/03 10:07:28;;;;;;;15.95;10.40;;;;;;;31.27;68.15;98057.22;5036355;28;20048;-96
2023/08/03 10:09:58;;;;;;;24.05;10.90;;;;;;;31.46;67.86;98053.06;5021047;28;20407;-95
2023/08/03 10:12:30;;;;;;;18.98;9.95;;;;;;;31.56;67.47;98070.13;5018710;28;20077;-95
2023/08/03 10:14:58;;;;;;;17.33;10.48;;;;;;;31.22;67.83;98077.03;5009352;28;20042;-95
2023/08/03 10:17:25;;;;;;;22.30;10.70;;;;;;;31.30;66.71;98059.59;5000610;28;20459;-96
2023/08/03 10:19:52;;;;;;;22.73;10.20;;;;;;;31.56;66.20;98075.63;5009877;28;20091;-96
2023/08/03 10:22:18;;;;;;;19.10;11.07;;;;;;;30.62;61.93;98073.38;5004056;28;20047;-94
2023/08/03 10:25:22;;;;;;;15.93;9.80;;;;;;;30.69;61.92;98073.50;5018305;28;20045;-94
2023/08/03 10:28:14;;;;;;;18.98;11.25;;;;;;;31.26;58.96;98067.38;5000012;28;20052;-95
2023/08/03 10:31:11;;;;;;;36.08;11.63;;;;;;;31.58;56.01;98073.53;5015285;28;20054;-94
2023/08/03 10:34:05;;;;;;;17.00;9.50;;;;;;;31.30;55.72;98071.44;5008152;28;20055;-94
2023/08/03 10:36:38;;;;;;;16.45;9.60;;;;;;;31.46;55.67;98075.06;5014873;28;20449;-93
2023/08/03 10:39:07;;;;;;;16.33;9.10;;;;;;;31.70;53.63;98060.13;5031552;28;20556;-95
2023/08/03 10:41:37;;;;;;;15.63;9.02;;;;;;;31.47;55.55;98074.03;5012749;28;20056;-95
2023/08/03 10:44:23;;;;;;;18.50;9.18;;;;;;;31.66;55.94;98075.28;5018173;28;20045;-96
2023/08/03 10:46:50;;;;;;;16.05;10.13;;;;;;;31.44;55.69;98060.66;5010768;28;20495;-95
2023/08/03 10:49:48;;;;;;;18.67;8.68;;;;;;;31.46;55.97;98072.31;5017574;28;20521;-94
2023/08/03 10:52:19;;;;;;;20.52;9.60;;;;;;;31.64;56.35;98074.63;5011277;28;20049;-94
2023/08/03 10:54:46;;;;;;;21.25;10.18;;;;;;;31.50;56.19;98068.13;5018317;28;20045;-93
2023/08/03 10:57:13;;;;;;;18.25;9.82;;;;;;;31.29;57.14;98055.13;5017661;28;20124;-95
2023/08/03 10:59:42;;;;;;;18.02;9.68;;;;;;;31.60;56.38;98057.69;5018015;28;20042;-94
2023/08/03 11:02:11;;;;;;;20.33;9.50;;;;;;;31.38;55.71;98044.91;5009175;28;20051;-94